createdAt,value
2019-02-03T00:00:28.125Z,23.65
2019-02-03T00:01:05.453Z,20.82
2019-02-03T00:01:40.822Z,22.27
2019-02-03T00:02:15.681Z,23.73
2019-02-03T00:02:50.329Z,22.70
2019-02-03T00:03:24.924Z,24.55
2019-02-03T00:03:59.536Z,24.12
2019-02-03T00:04:34.108Z,25.15
2019-02-03T00:05:09.174Z,25.50
2019-02-03T00:05:43.680Z,23.55
2019-02-03T00:06:18.268Z,25.30
2019-02-03T00:07:03.021Z,25.30
2019-02-03T00:07:29.157Z,24.85
2019-02-03T00:08:03.762Z,26.05
2019-02-03T00:08:38.340Z,23.32
2019-02-03T00:09:15.798Z,22.70
2019-02-03T00:09:50.301Z,24.60
2019-02-03T00:10:24.979Z,22.10
2019-02-03T00:10:59.682Z,24.27
2019-02-03T00:11:34.323Z,27.67
2019-02-03T00:12:09.196Z,24.55
2019-02-03T00:12:44.120Z,23.73
2019-02-03T00:13:18.686Z,23.83
2019-02-03T00:13:53.638Z,23.35
2019-02-03T00:14:28.249Z,24.47
2019-02-03T00:15:04.673Z,24.25
2019-02-03T00:15:39.251Z,24.23
2019-02-03T00:16:14.135Z,23.98
2019-02-03T00:16:48.716Z,23.98
2019-02-03T00:17:23.272Z,25.10
2019-02-03T00:18:00.106Z,26.55
2019-02-03T00:18:34.716Z,24.15
2019-02-03T00:19:09.289Z,23.67
2019-02-03T00:19:43.851Z,25.32
2019-02-03T00:20:18.381Z,24.05
2019-02-03T00:20:52.890Z,22.13
2019-02-03T00:21:28.078Z,22.27
2019-02-03T00:22:05.501Z,24.25
2019-02-03T00:22:39.180Z,25.02
2019-02-03T00:23:13.689Z,25.23
2019-02-03T00:23:48.200Z,22.85
2019-02-03T00:24:22.722Z,24.90
2019-02-03T00:24:57.390Z,22.58
2019-02-03T00:25:32.084Z,22.95
2019-02-03T00:26:06.625Z,24.35
2019-02-03T00:26:41.310Z,22.60
2019-02-03T00:27:15.905Z,23.55
2019-02-03T00:27:50.424Z,22.13
2019-02-03T00:28:24.988Z,21.10
2019-02-03T00:28:59.501Z,20.77
2019-02-03T00:29:34.094Z,21.65
2019-02-03T00:30:12.050Z,24.18
2019-02-03T00:30:46.630Z,23.22
2019-02-03T00:31:21.200Z,22.70
2019-02-03T00:31:56.177Z,24.10
2019-02-03T00:32:30.757Z,23.67
2019-02-03T00:33:05.402Z,22.75
2019-02-03T00:33:39.947Z,23.30
2019-02-03T00:34:14.612Z,23.90
2019-02-03T00:34:49.129Z,23.85
2019-02-03T00:35:23.746Z,25.48
2019-02-03T00:35:58.259Z,23.22
2019-02-03T00:36:32.845Z,22.73
2019-02-03T00:37:15.392Z,24.92
2019-02-03T00:37:43.643Z,22.05
2019-02-03T00:38:23.159Z,23.35
2019-02-03T00:38:54.539Z,22.35
2019-02-03T00:39:29.150Z,26.62
2019-02-03T00:40:07.146Z,24.18
2019-02-03T00:40:41.722Z,24.35
2019-02-03T00:41:16.633Z,22.05
2019-02-03T00:41:51.177Z,21.33
2019-02-03T00:42:26.045Z,23.55
2019-02-03T00:43:00.551Z,24.00
2019-02-03T00:43:35.244Z,24.43
2019-02-03T00:44:09.847Z,21.52
2019-02-03T00:44:44.516Z,22.77
2019-02-03T00:45:19.093Z,22.67
2019-02-03T00:45:53.840Z,23.83
2019-02-03T00:46:28.378Z,23.62
2019-02-03T00:47:02.953Z,23.62
2019-02-03T00:47:37.519Z,24.77
2019-02-03T00:48:12.041Z,24.43
2019-02-03T00:48:46.669Z,23.62
2019-02-03T00:49:21.262Z,24.05
2019-02-03T00:49:55.811Z,24.02
2019-02-03T00:50:30.382Z,20.95
2019-02-03T00:51:05.737Z,22.58
2019-02-03T00:51:40.250Z,23.70
2019-02-03T00:52:14.847Z,22.05
2019-02-03T00:52:49.429Z,21.55
2019-02-03T00:53:24.039Z,23.67
2019-02-03T00:53:58.920Z,20.97
2019-02-03T00:54:33.506Z,22.25
2019-02-03T00:55:11.515Z,24.45
2019-02-03T00:55:46.105Z,22.27
2019-02-03T00:56:20.685Z,24.95
2019-02-03T00:56:55.273Z,23.10
2019-02-03T00:57:32.325Z,22.65
2019-02-03T00:58:06.436Z,23.02
2019-02-03T00:58:41.031Z,22.20
2019-02-03T00:59:15.832Z,22.22
2019-02-03T00:59:50.393Z,22.55
2019-02-03T01:00:25.249Z,19.82
2019-02-03T01:00:59.905Z,21.97
2019-02-03T01:01:34.546Z,21.12
2019-02-03T01:02:09.121Z,20.00
2019-02-03T01:02:43.903Z,23.20
2019-02-03T01:03:18.642Z,20.80
2019-02-03T01:03:53.640Z,19.55
2019-02-03T01:04:28.212Z,20.77
2019-02-03T01:05:02.926Z,21.73
2019-02-03T01:05:37.564Z,20.30
2019-02-03T01:06:12.443Z,20.05
2019-02-03T01:06:48.900Z,19.45
2019-02-03T01:07:27.942Z,20.45
2019-02-03T01:08:03.395Z,21.33
2019-02-03T01:08:38.334Z,20.57
2019-02-03T01:09:13.287Z,22.37
2019-02-03T01:09:47.865Z,19.20
2019-02-03T01:10:24.155Z,20.00
2019-02-03T01:10:58.678Z,23.70
2019-02-03T01:11:33.185Z,20.08
2019-02-03T01:12:07.968Z,23.15
2019-02-03T01:12:42.910Z,20.80
2019-02-03T01:13:17.586Z,21.05
2019-02-03T01:13:52.254Z,21.00
2019-02-03T01:14:26.828Z,19.40
2019-02-03T01:15:01.471Z,20.95
2019-02-03T01:15:36.128Z,20.20
2019-02-03T01:16:10.713Z,23.67
2019-02-03T01:16:45.326Z,21.40
2019-02-03T01:17:20.084Z,22.37
2019-02-03T01:17:54.786Z,21.42
2019-02-03T01:18:29.299Z,22.73
2019-02-03T01:19:03.885Z,20.55
2019-02-03T01:19:38.463Z,21.27
2019-02-03T01:20:15.207Z,20.40
2019-02-03T01:20:49.853Z,20.97
2019-02-03T01:21:24.459Z,18.40
2019-02-03T01:21:59.357Z,19.65
2019-02-03T01:22:33.857Z,21.48
2019-02-03T01:23:08.575Z,21.02
2019-02-03T01:23:43.107Z,20.27
2019-02-03T01:24:17.835Z,19.87
2019-02-03T01:24:52.442Z,19.42
2019-02-03T01:25:27.103Z,21.70
2019-02-03T01:26:02.944Z,20.77
2019-02-03T01:26:37.474Z,20.48
2019-02-03T01:27:11.983Z,22.45
2019-02-03T01:27:46.611Z,21.17
2019-02-03T01:28:21.179Z,20.50
2019-02-03T01:28:56.019Z,20.62
2019-02-03T01:29:30.603Z,20.97
2019-02-03T01:30:08.190Z,21.60
2019-02-03T01:30:42.808Z,21.73
2019-02-03T01:31:17.387Z,20.15
2019-02-03T01:31:52.069Z,22.40
2019-02-03T01:32:26.711Z,21.97
2019-02-03T01:33:01.338Z,22.10
2019-02-03T01:33:35.918Z,19.82
2019-02-03T01:34:10.581Z,23.27
2019-02-03T01:34:45.189Z,21.45
2019-02-03T01:35:20.517Z,24.98
2019-02-03T01:35:55.070Z,21.82
2019-02-03T01:36:29.616Z,20.97
2019-02-03T01:37:04.361Z,21.93
2019-02-03T01:37:40.715Z,22.15
2019-02-03T01:38:15.164Z,21.50
2019-02-03T01:38:49.817Z,21.70
2019-02-03T01:39:24.716Z,22.62
2019-02-03T01:39:59.371Z,21.42
2019-02-03T01:40:34.463Z,22.50
2019-02-03T01:41:09.281Z,23.50
2019-02-03T01:41:45.413Z,20.20
2019-02-03T01:42:20.011Z,24.72
2019-02-03T01:42:54.561Z,23.50
2019-02-03T01:43:29.162Z,21.10
2019-02-03T01:44:03.846Z,24.50
2019-02-03T01:44:38.627Z,23.10
2019-02-03T01:45:21.256Z,22.87
2019-02-03T01:45:56.017Z,21.17
2019-02-03T01:46:30.684Z,20.45
2019-02-03T01:47:05.224Z,20.55
2019-02-03T01:47:39.809Z,22.60
2019-02-03T01:48:14.405Z,21.20
2019-02-03T01:48:48.983Z,20.52
2019-02-03T01:49:23.577Z,19.95
2019-02-03T01:49:58.223Z,19.17
2019-02-03T01:50:32.800Z,20.52
2019-02-03T01:51:07.389Z,20.70
2019-02-03T01:51:41.902Z,20.68
2019-02-03T01:52:16.514Z,21.40
2019-02-03T01:52:51.091Z,22.15
2019-02-03T01:53:25.687Z,22.07
2019-02-03T01:54:00.821Z,20.90
2019-02-03T01:54:35.404Z,21.42
2019-02-03T01:55:15.653Z,21.35
2019-02-03T01:55:50.249Z,22.25
2019-02-03T01:56:24.842Z,23.25
2019-02-03T01:56:59.412Z,22.55
2019-02-03T01:57:33.925Z,20.10
2019-02-03T01:58:08.521Z,22.77
2019-02-03T01:58:43.027Z,21.77
2019-02-03T01:59:17.689Z,24.15
2019-02-03T01:59:52.662Z,22.15
2019-02-03T02:00:29.573Z,22.58
2019-02-03T02:01:05.280Z,22.67
2019-02-03T02:01:39.796Z,22.13
2019-02-03T02:02:14.496Z,21.07
2019-02-03T02:02:49.204Z,23.57
2019-02-03T02:03:24.135Z,21.33
2019-02-03T02:03:58.677Z,24.47
2019-02-03T02:04:33.186Z,23.30
2019-02-03T02:05:08.817Z,21.37
2019-02-03T02:05:43.324Z,21.97
2019-02-03T02:06:17.838Z,23.85
2019-02-03T02:06:53.094Z,24.85
2019-02-03T02:07:27.803Z,24.07
2019-02-03T02:08:04.970Z,23.67
2019-02-03T02:08:38.596Z,23.12
2019-02-03T02:09:13.105Z,22.20
2019-02-03T02:09:47.692Z,25.02
2019-02-03T02:10:28.797Z,22.10
2019-02-03T02:11:03.348Z,20.77
2019-02-03T02:11:37.919Z,22.93
2019-02-03T02:12:12.498Z,20.12
2019-02-03T02:12:47.121Z,21.87
2019-02-03T02:13:21.824Z,20.82
2019-02-03T02:13:56.496Z,22.22
2019-02-03T02:14:31.155Z,22.15
2019-02-03T02:15:08.858Z,21.15
2019-02-03T02:15:43.439Z,20.70
2019-02-03T02:16:18.019Z,20.85
2019-02-03T02:16:52.716Z,22.05
2019-02-03T02:17:27.289Z,21.20
2019-02-03T02:18:01.868Z,20.17
2019-02-03T02:18:36.384Z,22.25
2019-02-03T02:19:10.959Z,21.82
2019-02-03T02:19:45.546Z,19.32
2019-02-03T02:20:22.743Z,22.07
2019-02-03T02:20:57.435Z,20.17
2019-02-03T02:21:32.132Z,21.87
2019-02-03T02:22:06.708Z,23.73
2019-02-03T02:22:41.303Z,20.90
2019-02-03T02:23:15.972Z,20.92
2019-02-03T02:23:50.573Z,22.77
2019-02-03T02:24:25.263Z,21.25
2019-02-03T02:25:00.325Z,22.20
2019-02-03T02:25:35.058Z,20.48
2019-02-03T02:26:10.013Z,21.20
2019-02-03T02:26:44.528Z,23.42
2019-02-03T02:27:19.580Z,22.58
2019-02-03T02:27:54.182Z,20.72
2019-02-03T02:28:29.090Z,22.02
2019-02-03T02:29:03.727Z,20.77
2019-02-03T02:29:38.600Z,20.77
2019-02-03T02:30:21.525Z,21.05
2019-02-03T02:30:55.392Z,21.68
2019-02-03T02:31:32.366Z,21.10
2019-02-03T02:32:06.327Z,19.35
2019-02-03T02:32:40.912Z,20.60
2019-02-03T02:33:16.169Z,20.62
2019-02-03T02:33:50.745Z,20.52
2019-02-03T02:34:25.334Z,22.00
2019-02-03T02:34:59.967Z,22.10
2019-02-03T02:35:34.478Z,21.27
2019-02-03T02:36:09.422Z,21.80
2019-02-03T02:36:44.100Z,21.20
2019-02-03T02:37:18.681Z,21.05
2019-02-03T02:38:05.983Z,21.10
2019-02-03T02:38:29.522Z,20.15
2019-02-03T02:39:06.629Z,22.27
2019-02-03T02:39:41.292Z,22.00
2019-02-03T02:40:21.017Z,22.30
2019-02-03T02:40:55.666Z,19.95
2019-02-03T02:41:30.247Z,21.23
2019-02-03T02:42:05.180Z,19.27
2019-02-03T02:42:39.755Z,24.18
2019-02-03T02:43:15.569Z,23.47
2019-02-03T02:43:50.189Z,20.35
2019-02-03T02:44:25.167Z,22.27
2019-02-03T02:44:59.720Z,22.07
2019-02-03T02:45:34.793Z,22.00
2019-02-03T02:46:09.457Z,20.92
2019-02-03T02:46:44.442Z,20.85
2019-02-03T02:47:19.017Z,22.60
2019-02-03T02:47:54.494Z,23.42
2019-02-03T02:48:29.061Z,23.10
2019-02-03T02:49:05.407Z,20.08
2019-02-03T02:49:40.028Z,23.75
2019-02-03T02:50:29.451Z,22.17
2019-02-03T02:51:04.103Z,22.75
2019-02-03T02:51:38.703Z,23.85
2019-02-03T02:52:13.268Z,21.30
2019-02-03T02:52:47.862Z,21.80
2019-02-03T02:53:22.370Z,20.30
2019-02-03T02:53:58.909Z,21.65
2019-02-03T02:54:33.192Z,22.65
2019-02-03T02:55:09.396Z,21.73
2019-02-03T02:55:44.072Z,22.02
2019-02-03T02:56:18.701Z,20.80
2019-02-03T02:56:53.215Z,21.25
2019-02-03T02:57:27.801Z,22.60
2019-02-03T02:58:02.821Z,21.30
2019-02-03T02:58:37.402Z,20.80
2019-02-03T02:59:11.999Z,20.37
2019-02-03T02:59:46.520Z,22.42
2019-02-03T03:00:25.469Z,23.70
2019-02-03T03:01:00.036Z,23.35
2019-02-03T03:01:41.062Z,20.50
2019-02-03T03:02:15.897Z,22.37
2019-02-03T03:02:50.473Z,21.33
2019-02-03T03:03:25.068Z,20.10
2019-02-03T03:03:59.576Z,20.55
2019-02-03T03:04:34.167Z,21.68
2019-02-03T03:05:09.981Z,20.95
2019-02-03T03:05:45.188Z,23.57
2019-02-03T03:06:19.828Z,22.62
2019-02-03T03:06:54.429Z,21.70
2019-02-03T03:07:29.076Z,19.80
2019-02-03T03:08:04.001Z,20.80
2019-02-03T03:08:38.732Z,22.77
2019-02-03T03:09:13.301Z,21.95
2019-02-03T03:09:48.155Z,20.68
2019-02-03T03:10:22.876Z,21.55
2019-02-03T03:10:57.349Z,20.95
2019-02-03T03:11:34.699Z,21.48
2019-02-03T03:12:08.303Z,19.65
2019-02-03T03:12:42.869Z,19.98
2019-02-03T03:13:18.140Z,21.90
2019-02-03T03:13:52.766Z,21.45
2019-02-03T03:14:27.326Z,21.57
2019-02-03T03:15:01.978Z,20.72
2019-02-03T03:15:36.581Z,22.70
2019-02-03T03:16:11.142Z,21.77
2019-02-03T03:16:45.654Z,19.12
2019-02-03T03:17:20.228Z,20.72
2019-02-03T03:17:54.774Z,19.48
2019-02-03T03:18:29.386Z,19.67
2019-02-03T03:19:03.925Z,19.67
2019-02-03T03:19:38.535Z,20.52
2019-02-03T03:20:18.270Z,21.30
2019-02-03T03:20:52.842Z,20.82
2019-02-03T03:21:33.318Z,19.48
2019-02-03T03:22:08.195Z,20.62
2019-02-03T03:22:42.868Z,20.68
2019-02-03T03:23:17.993Z,21.70
2019-02-03T03:23:52.718Z,21.45
2019-02-03T03:24:27.604Z,20.17
2019-02-03T03:25:02.295Z,20.75
2019-02-03T03:25:45.529Z,19.85
2019-02-03T03:26:20.223Z,21.12
2019-02-03T03:26:54.803Z,19.02
2019-02-03T03:27:29.582Z,19.60
2019-02-03T03:28:04.322Z,20.60
2019-02-03T03:28:41.950Z,19.35
2019-02-03T03:29:16.538Z,19.77
2019-02-03T03:29:51.130Z,21.20
2019-02-03T03:30:27.557Z,23.32
2019-02-03T03:31:02.068Z,23.35
2019-02-03T03:31:36.651Z,21.85
2019-02-03T03:32:11.553Z,21.73
2019-02-03T03:32:46.138Z,22.00
2019-02-03T03:33:20.891Z,21.70
2019-02-03T03:33:55.894Z,20.25
2019-02-03T03:34:30.514Z,19.27
2019-02-03T03:35:06.071Z,20.85
2019-02-03T03:35:40.854Z,22.82
2019-02-03T03:36:15.432Z,20.80
2019-02-03T03:36:50.118Z,23.25
2019-02-03T03:37:24.700Z,22.15
2019-02-03T03:37:59.213Z,19.98
2019-02-03T03:38:33.783Z,20.80
2019-02-03T03:39:08.938Z,22.55
2019-02-03T03:39:43.445Z,20.80
2019-02-03T03:40:26.449Z,22.48
2019-02-03T03:41:01.100Z,21.70
2019-02-03T03:41:35.725Z,21.25
2019-02-03T03:42:10.299Z,22.35
2019-02-03T03:42:44.919Z,22.35
2019-02-03T03:43:22.407Z,20.40
2019-02-03T03:43:57.090Z,21.55
2019-02-03T03:44:31.640Z,22.58
2019-02-03T03:45:08.309Z,19.98
2019-02-03T03:45:42.887Z,22.00
2019-02-03T03:46:17.478Z,21.30
2019-02-03T03:46:52.069Z,21.37
2019-02-03T03:47:26.652Z,23.67
2019-02-03T03:48:01.418Z,22.93
2019-02-03T03:48:36.002Z,21.60
2019-02-03T03:49:10.671Z,22.02
2019-02-03T03:49:45.433Z,20.92
2019-02-03T03:50:20.283Z,22.95
2019-02-03T03:50:54.885Z,21.40
2019-02-03T03:51:29.463Z,21.70
2019-02-03T03:52:04.324Z,22.48
2019-02-03T03:52:39.528Z,22.35
2019-02-03T03:53:14.170Z,24.00
2019-02-03T03:53:48.755Z,24.45
2019-02-03T03:54:23.272Z,22.17
2019-02-03T03:54:58.182Z,21.82
2019-02-03T03:55:32.821Z,21.77
2019-02-03T03:56:07.388Z,22.52
2019-02-03T03:56:41.896Z,23.05
2019-02-03T03:57:16.526Z,20.80
2019-02-03T03:57:51.279Z,22.77
2019-02-03T03:58:26.960Z,22.40
2019-02-03T03:59:01.548Z,21.82
2019-02-03T03:59:38.010Z,23.65
2019-02-03T04:00:18.250Z,21.27
2019-02-03T04:00:53.231Z,21.95
2019-02-03T04:01:27.816Z,21.25
2019-02-03T04:02:02.866Z,22.82
2019-02-03T04:02:37.485Z,23.00
2019-02-03T04:03:12.463Z,21.30
2019-02-03T04:03:48.837Z,21.62
2019-02-03T04:04:23.335Z,19.20
2019-02-03T04:04:57.930Z,21.73
2019-02-03T04:05:32.945Z,22.35
2019-02-03T04:06:07.588Z,21.23
2019-02-03T04:06:42.169Z,19.50
2019-02-03T04:07:16.768Z,22.85
2019-02-03T04:07:51.566Z,22.60
2019-02-03T04:08:26.135Z,22.15
2019-02-03T04:09:00.812Z,21.55
2019-02-03T04:09:35.403Z,19.85
2019-02-03T04:10:12.722Z,19.67
2019-02-03T04:10:47.318Z,21.48
2019-02-03T04:11:21.970Z,20.27
2019-02-03T04:11:56.536Z,21.87
2019-02-03T04:12:31.041Z,20.35
2019-02-03T04:13:05.806Z,21.30
2019-02-03T04:13:46.312Z,23.15
2019-02-03T04:14:20.991Z,22.55
2019-02-03T04:14:55.573Z,20.65
2019-02-03T04:15:30.151Z,20.40
2019-02-03T04:16:05.373Z,22.00
2019-02-03T04:16:39.962Z,21.80
2019-02-03T04:17:14.532Z,20.00
2019-02-03T04:17:49.653Z,22.67
2019-02-03T04:18:24.335Z,21.23
2019-02-03T04:18:58.976Z,21.10
2019-02-03T04:19:33.552Z,20.75
2019-02-03T04:20:11.195Z,22.22
2019-02-03T04:20:45.787Z,20.95
2019-02-03T04:21:20.356Z,21.73
2019-02-03T04:21:54.974Z,22.17
2019-02-03T04:22:29.476Z,22.13
2019-02-03T04:23:04.342Z,20.48
2019-02-03T04:23:38.939Z,22.48
2019-02-03T04:24:13.490Z,19.90
2019-02-03T04:24:48.010Z,21.68
2019-02-03T04:25:22.577Z,21.15
2019-02-03T04:25:57.166Z,21.60
2019-02-03T04:26:31.863Z,22.42
2019-02-03T04:27:06.375Z,20.68
2019-02-03T04:27:41.026Z,21.55
2019-02-03T04:28:15.654Z,21.97
2019-02-03T04:28:50.237Z,23.22
2019-02-03T04:29:24.853Z,20.80
2019-02-03T04:29:59.404Z,22.30
2019-02-03T04:30:34.754Z,20.77
2019-02-03T04:31:10.508Z,19.65
2019-02-03T04:31:45.655Z,21.82
2019-02-03T04:32:20.362Z,19.23
2019-02-03T04:32:56.468Z,21.42
2019-02-03T04:33:31.037Z,21.37
2019-02-03T04:34:05.840Z,19.15
2019-02-03T04:34:40.363Z,21.30
2019-02-03T04:35:15.070Z,23.87
2019-02-03T04:35:49.644Z,22.60
2019-02-03T04:36:24.284Z,19.10
2019-02-03T04:36:59.006Z,18.92
2019-02-03T04:37:33.604Z,20.52
2019-02-03T04:38:08.184Z,19.52
2019-02-03T04:38:42.781Z,22.37
2019-02-03T04:39:17.355Z,20.37
2019-02-03T04:39:51.929Z,21.42
2019-02-03T04:40:26.517Z,20.23
2019-02-03T04:41:01.265Z,21.23
2019-02-03T04:41:35.782Z,20.05
2019-02-03T04:42:10.366Z,22.20
2019-02-03T04:42:45.038Z,20.62
2019-02-03T04:43:19.731Z,21.52
2019-02-03T04:43:54.328Z,20.92
2019-02-03T04:44:28.911Z,21.55
2019-02-03T04:45:03.835Z,18.50
2019-02-03T04:45:40.056Z,20.50
2019-02-03T04:46:14.932Z,21.48
2019-02-03T04:46:49.482Z,21.95
2019-02-03T04:47:24.353Z,20.50
2019-02-03T04:47:58.966Z,21.02
2019-02-03T04:48:33.732Z,18.85
2019-02-03T04:49:08.360Z,20.80
2019-02-03T04:49:42.956Z,21.35
2019-02-03T04:50:19.547Z,21.95
2019-02-03T04:50:54.210Z,19.73
2019-02-03T04:51:28.805Z,19.48
2019-02-03T04:52:03.375Z,19.17
2019-02-03T04:52:38.117Z,20.12
2019-02-03T04:53:12.690Z,20.02
2019-02-03T04:53:47.265Z,18.90
2019-02-03T04:54:21.840Z,20.25
2019-02-03T04:54:56.435Z,20.10
2019-02-03T04:55:31.019Z,18.17
2019-02-03T04:56:05.606Z,18.85
2019-02-03T04:56:40.218Z,20.40
2019-02-03T04:57:14.787Z,20.50
2019-02-03T04:57:49.537Z,20.60
2019-02-03T04:58:24.124Z,18.67
2019-02-03T04:59:01.560Z,20.60
2019-02-03T04:59:36.129Z,19.00
2019-02-03T05:00:16.345Z,20.40
2019-02-03T05:00:50.912Z,20.10
2019-02-03T05:01:25.791Z,18.87
2019-02-03T05:02:00.427Z,19.67
2019-02-03T05:02:35.452Z,17.55
2019-02-03T05:03:10.056Z,20.88
2019-02-03T05:03:45.425Z,18.00
2019-02-03T05:04:20.179Z,18.60
2019-02-03T05:04:55.165Z,19.70
2019-02-03T05:05:30.208Z,18.82
2019-02-03T05:06:04.760Z,20.30
2019-02-03T05:06:39.346Z,18.73
2019-02-03T05:07:13.964Z,19.50
2019-02-03T05:07:48.837Z,19.48
2019-02-03T05:08:24.570Z,18.23
2019-02-03T05:09:10.671Z,18.67
2019-02-03T05:09:35.569Z,19.45
2019-02-03T05:10:12.165Z,19.75
2019-02-03T05:10:46.783Z,19.48
2019-02-03T05:11:21.297Z,18.32
2019-02-03T05:11:55.886Z,19.05
2019-02-03T05:12:30.400Z,19.50
2019-02-03T05:13:04.978Z,19.17
2019-02-03T05:13:39.517Z,18.30
2019-02-03T05:14:14.066Z,19.70
2019-02-03T05:14:48.657Z,18.73
2019-02-03T05:15:23.955Z,17.98
2019-02-03T05:15:58.517Z,19.17
2019-02-03T05:16:33.269Z,19.02
2019-02-03T05:17:08.464Z,19.55
2019-02-03T05:17:43.168Z,18.65
2019-02-03T05:18:17.783Z,18.55
2019-02-03T05:18:52.383Z,16.80
2019-02-03T05:19:26.985Z,19.65
2019-02-03T05:20:02.287Z,18.30
2019-02-03T05:20:37.083Z,18.77
2019-02-03T05:21:11.671Z,20.05
2019-02-03T05:21:46.240Z,17.30
2019-02-03T05:22:20.925Z,18.45
2019-02-03T05:22:55.508Z,18.85
2019-02-03T05:23:30.105Z,18.55
2019-02-03T05:24:04.818Z,17.80
2019-02-03T05:24:39.455Z,18.30
2019-02-03T05:25:14.880Z,18.75
2019-02-03T05:25:49.467Z,16.30
2019-02-03T05:26:24.023Z,17.30
2019-02-03T05:26:58.625Z,19.00
2019-02-03T05:27:33.204Z,17.92
2019-02-03T05:28:07.805Z,17.65
2019-02-03T05:28:42.368Z,16.85
2019-02-03T05:29:17.036Z,16.52
2019-02-03T05:29:51.621Z,17.45
2019-02-03T05:30:31.843Z,18.73
2019-02-03T05:31:06.760Z,16.23
2019-02-03T05:31:41.405Z,16.15
2019-02-03T05:32:16.363Z,17.15
2019-02-03T05:32:50.876Z,16.20
2019-02-03T05:33:25.772Z,16.37
2019-02-03T05:34:00.386Z,15.45
2019-02-03T05:34:35.277Z,18.07
2019-02-03T05:35:09.972Z,16.05
2019-02-03T05:35:44.972Z,15.63
2019-02-03T05:36:19.728Z,16.65
2019-02-03T05:36:54.303Z,15.83
2019-02-03T05:37:28.828Z,14.93
2019-02-03T05:38:03.412Z,15.60
2019-02-03T05:38:38.067Z,15.93
2019-02-03T05:39:24.354Z,13.80
2019-02-03T05:39:48.796Z,16.60
2019-02-03T05:40:23.566Z,14.07
2019-02-03T05:40:58.144Z,16.25
2019-02-03T05:41:32.718Z,15.05
2019-02-03T05:42:07.335Z,16.15
2019-02-03T05:42:42.010Z,16.82
2019-02-03T05:43:16.598Z,15.10
2019-02-03T05:43:51.111Z,14.33
2019-02-03T05:44:25.627Z,15.40
2019-02-03T05:45:00.365Z,15.32
2019-02-03T05:45:35.234Z,15.23
2019-02-03T05:46:09.831Z,16.65
2019-02-03T05:46:44.483Z,15.05
2019-02-03T05:47:19.243Z,14.60
2019-02-03T05:47:53.785Z,15.38
2019-02-03T05:48:30.177Z,14.85
2019-02-03T05:49:04.926Z,13.15
2019-02-03T05:49:39.548Z,16.27
2019-02-03T05:50:16.714Z,14.18
2019-02-03T05:50:51.206Z,14.35
2019-02-03T05:51:25.954Z,12.55
2019-02-03T05:52:00.511Z,15.45
2019-02-03T05:52:35.010Z,13.83
2019-02-03T05:53:09.530Z,14.98
2019-02-03T05:53:44.244Z,15.08
2019-02-03T05:54:18.887Z,15.15
2019-02-03T05:54:53.395Z,13.93
2019-02-03T05:55:28.048Z,13.32
2019-02-03T05:56:02.563Z,16.30
2019-02-03T05:56:37.257Z,13.88
2019-02-03T05:57:11.839Z,13.48
2019-02-03T05:57:48.063Z,13.68
2019-02-03T05:58:22.568Z,12.78
2019-02-03T05:58:57.076Z,13.70
2019-02-03T05:59:31.882Z,13.70
2019-02-03T06:00:12.402Z,12.15
2019-02-03T06:00:47.323Z,12.18
2019-02-03T06:01:21.901Z,10.95
2019-02-03T06:02:04.222Z,12.70
2019-02-03T06:02:38.967Z,11.93
2019-02-03T06:03:13.554Z,11.85
2019-02-03T06:03:48.130Z,11.93
2019-02-03T06:04:22.784Z,13.60
2019-02-03T06:04:57.365Z,11.97
2019-02-03T06:05:31.981Z,10.25
2019-02-03T06:06:06.627Z,11.88
2019-02-03T06:06:41.197Z,11.68
2019-02-03T06:07:15.834Z,12.37
2019-02-03T06:07:50.411Z,11.80
2019-02-03T06:08:25.051Z,12.15
2019-02-03T06:08:59.634Z,12.35
2019-02-03T06:09:36.667Z,12.65
2019-02-03T06:10:16.285Z,11.97
2019-02-03T06:10:50.840Z,10.85
2019-02-03T06:11:25.349Z,13.43
2019-02-03T06:12:00.025Z,13.28
2019-02-03T06:12:34.550Z,13.10
2019-02-03T06:13:09.050Z,11.50
2019-02-03T06:13:43.744Z,12.88
2019-02-03T06:14:18.308Z,13.38
2019-02-03T06:14:52.829Z,12.70
2019-02-03T06:15:27.441Z,13.80
2019-02-03T06:16:02.003Z,13.80
2019-02-03T06:16:36.638Z,13.15
2019-02-03T06:17:11.224Z,12.43
2019-02-03T06:17:45.868Z,11.38
2019-02-03T06:18:20.442Z,13.60
2019-02-03T06:18:55.061Z,12.37
2019-02-03T06:19:29.739Z,12.82
2019-02-03T06:20:07.338Z,13.48
2019-02-03T06:20:41.930Z,12.35
2019-02-03T06:21:16.515Z,12.23
2019-02-03T06:21:51.014Z,10.45
2019-02-03T06:22:25.594Z,12.93
2019-02-03T06:23:00.873Z,11.20
2019-02-03T06:23:35.449Z,11.55
2019-02-03T06:24:10.078Z,12.60
2019-02-03T06:24:45.133Z,10.82
2019-02-03T06:25:19.834Z,11.93
2019-02-03T06:25:54.853Z,13.98
2019-02-03T06:26:29.392Z,12.73
2019-02-03T06:27:04.620Z,13.55
2019-02-03T06:27:39.485Z,11.93
2019-02-03T06:28:14.374Z,11.78
2019-02-03T06:28:48.999Z,11.90
2019-02-03T06:29:25.282Z,11.63
2019-02-03T06:30:00.020Z,10.25
2019-02-03T06:30:40.318Z,11.55
2019-02-03T06:31:15.377Z,10.98
2019-02-03T06:31:51.437Z,10.40
2019-02-03T06:32:26.038Z,11.25
2019-02-03T06:33:02.157Z,11.78
2019-02-03T06:33:36.709Z,12.33
2019-02-03T06:34:11.283Z,12.00
2019-02-03T06:34:45.866Z,11.95
2019-02-03T06:35:20.442Z,11.35
2019-02-03T06:35:55.132Z,11.53
2019-02-03T06:36:29.725Z,11.25
2019-02-03T06:37:04.407Z,11.35
2019-02-03T06:37:39.055Z,12.03
2019-02-03T06:38:13.642Z,11.20
2019-02-03T06:38:48.565Z,11.80
2019-02-03T06:39:23.094Z,10.03
2019-02-03T06:39:57.672Z,11.28
2019-02-03T06:40:32.317Z,10.98
2019-02-03T06:41:06.999Z,10.35
2019-02-03T06:41:41.516Z,9.98
2019-02-03T06:42:16.135Z,11.22
2019-02-03T06:42:50.722Z,10.60
2019-02-03T06:43:25.308Z,9.75
2019-02-03T06:43:59.954Z,10.30
2019-02-03T06:44:34.459Z,10.55
2019-02-03T06:45:27.035Z,11.33
2019-02-03T06:46:19.756Z,9.85
2019-02-03T06:46:55.895Z,9.80
2019-02-03T06:47:30.531Z,10.23
2019-02-03T06:48:05.109Z,9.58
2019-02-03T06:48:39.704Z,10.43
2019-02-03T06:49:15.928Z,9.43
2019-02-03T06:49:50.890Z,8.88
2019-02-03T06:50:25.554Z,9.55
2019-02-03T06:51:00.529Z,9.60
2019-02-03T06:51:35.103Z,10.15
2019-02-03T06:52:10.041Z,8.58
2019-02-03T06:52:44.584Z,11.28
2019-02-03T06:53:19.421Z,9.18
2019-02-03T06:53:55.092Z,8.50
2019-02-03T06:54:29.669Z,10.50
2019-02-03T06:55:08.367Z,9.80
2019-02-03T06:55:44.917Z,9.43
2019-02-03T06:56:19.689Z,10.55
2019-02-03T06:56:54.745Z,10.08
2019-02-03T06:57:29.236Z,9.45
2019-02-03T06:58:03.951Z,10.05
2019-02-03T06:58:38.522Z,9.13
2019-02-03T06:59:13.031Z,11.70
2019-02-03T06:59:50.856Z,10.30
2019-02-03T07:00:23.807Z,10.13
2019-02-03T07:00:59.367Z,10.20
2019-02-03T07:01:33.878Z,10.23
2019-02-03T07:02:08.569Z,9.88
2019-02-03T07:02:43.170Z,9.98
2019-02-03T07:03:17.800Z,8.95
2019-02-03T07:03:52.447Z,9.43
2019-02-03T07:04:27.005Z,9.80
2019-02-03T07:05:01.519Z,8.53
2019-02-03T07:05:36.118Z,9.55
2019-02-03T07:06:10.677Z,9.73
2019-02-03T07:06:45.499Z,9.33
2019-02-03T07:07:20.237Z,9.80
2019-02-03T07:07:54.820Z,9.90
2019-02-03T07:08:29.401Z,8.78
2019-02-03T07:09:05.521Z,9.70
2019-02-03T07:09:40.025Z,9.20
2019-02-03T07:10:14.521Z,9.05
2019-02-03T07:10:49.030Z,9.18
2019-02-03T07:11:23.619Z,8.58
2019-02-03T07:11:58.188Z,8.55
2019-02-03T07:12:32.777Z,8.73
2019-02-03T07:13:07.355Z,9.23
2019-02-03T07:13:42.106Z,7.95
2019-02-03T07:14:16.682Z,8.65
2019-02-03T07:14:51.210Z,8.40
2019-02-03T07:15:25.813Z,9.03
2019-02-03T07:16:00.340Z,9.00
2019-02-03T07:16:41.947Z,8.20
2019-02-03T07:17:11.109Z,10.85
2019-02-03T07:17:45.633Z,10.78
2019-02-03T07:18:20.503Z,9.38
2019-02-03T07:18:55.068Z,9.03
2019-02-03T07:19:29.573Z,9.65
2019-02-03T07:20:12.762Z,8.40
2019-02-03T07:20:47.337Z,9.35
2019-02-03T07:21:21.928Z,8.88
2019-02-03T07:21:56.522Z,8.55
2019-02-03T07:22:31.105Z,9.23
2019-02-03T07:23:05.598Z,8.55
2019-02-03T07:23:40.265Z,8.70
2019-02-03T07:24:14.764Z,8.65
2019-02-03T07:24:49.273Z,8.60
2019-02-03T07:25:23.867Z,8.35
2019-02-03T07:25:58.386Z,8.85
2019-02-03T07:26:33.065Z,7.87
2019-02-03T07:27:07.669Z,9.58
2019-02-03T07:27:42.313Z,8.45
2019-02-03T07:28:16.884Z,7.80
2019-02-03T07:28:51.695Z,9.38
2019-02-03T07:29:26.229Z,9.18
2019-02-03T07:30:00.752Z,7.90
2019-02-03T07:30:35.249Z,7.78
2019-02-03T07:31:10.794Z,8.90
2019-02-03T07:31:45.365Z,7.75
2019-02-03T07:32:19.952Z,8.25
2019-02-03T07:32:54.938Z,8.88